Terminal Aerodrome Forecast
Issued by NWS

Home | Current Version | Previous Version | Text Only | Print | Product List | Glossary On
Versions: 1 2 3 4 5 6 7 8 9 10 11 12 13
000
FTUS45 KREV 170534
TAFTRK
TAF
KTRK 170534Z 1706/1806 00000KT 1/2SM FZFG VV002
     FM171600 VRB03KT P6SM VCFG FEW002
     FM171900 VRB03KT P6SM FEW020 SCT150
     FM180200 VRB03KT P6SM SCT100 BKN150=

USA.gov is the U.S. government's official web portal to all federal, state and local government web resources and services.